Time,TemperatureF,DewpointF,PressureIn,WindDirection,WindDirectionDegrees,WindSpeedMPH,WindSpeedGustMPH,Humidity,HourlyPrecipIn,Conditions,Clouds,dailyrainin,SoftwareType,DateUTC
2013-08-23 00:00:00,77.4,76.0,30.02,ESE,105,2.0,5.0,95,0.00,,,0.00,weatherlink.com 1.10,2013-08-23 04:00:00,
2013-08-23 00:15:00,77.3,76.0,30.02,SE,124,3.0,5.0,95,0.00,,,0.00,weatherlink.com 1.10,2013-08-23 04:15:00,
2013-08-23 00:30:00,77.2,76.0,30.02,ESE,117,2.0,3.0,95,0.00,,,0.00,weatherlink.com 1.10,2013-08-23 04:30:00,
2013-08-23 00:45:00,77.2,76.0,30.02,East,86,2.0,3.0,95,0.00,,,0.00,weatherlink.com 1.10,2013-08-23 04:45:00,
2013-08-23 01:00:00,77.1,76.0,30.02,SE,127,0.0,2.0,95,0.00,,,0.00,weatherlink.com 1.10,2013-08-23 05:00:00,
2013-08-23 01:15:00,77.2,76.0,30.01,ESE,120,0.0,1.0,95,0.00,,,0.00,weatherlink.com 1.10,2013-08-23 05:15:00,
2013-08-23 01:30:00,77.1,76.0,30.00,ESE,105,0.0,2.0,95,0.00,,,0.00,weatherlink.com 1.10,2013-08-23 05:30:00,
2013-08-23 01:45:00,77.0,76.0,30.00,ESE,108,0.0,0.0,95,0.00,,,0.00,weatherlink.com 1.10,2013-08-23 05:45:00,
2013-08-23 02:00:00,76.8,76.0,30.00,ESE,109,0.0,0.0,96,0.00,,,0.00,weatherlink.com 1.10,2013-08-23 06:00:00,
2013-08-23 02:15:00,76.5,75.0,30.00,ESE,108,0.0,0.0,96,0.00,,,0.00,weatherlink.com 1.10,2013-08-23 06:15:00,
2013-08-23 02:30:00,76.4,75.0,29.99,ESE,109,0.0,0.0,96,0.00,,,0.00,weatherlink.com 1.10,2013-08-23 06:30:00,
2013-08-23 02:45:00,76.0,75.0,29.98,ESE,109,0.0,0.0,96,0.00,,,0.00,weatherlink.com 1.10,2013-08-23 06:45:00,
2013-08-23 03:00:00,76.1,75.0,29.98,ESE,108,0.0,0.0,96,0.00,,,0.00,weatherlink.com 1.10,2013-08-23 07:00:00,
2013-08-23 03:15:00,76.2,75.0,29.98,ESE,108,0.0,1.0,96,0.00,,,0.00,weatherlink.com 1.10,2013-08-23 07:15:00,
2013-08-23 03:31:00,76.4,75.0,29.97,ESE,108,0.0,1.0,96,0.00,,,0.00,weatherlink.com 1.10,2013-08-23 07:31:00,
2013-08-23 03:46:00,76.4,75.0,29.97,ESE,108,0.0,0.0,96,0.00,,,0.00,weatherlink.com 1.10,2013-08-23 07:46:00,
2013-08-23 04:01:00,76.2,75.0,29.97,ESE,108,0.0,0.0,96,0.00,,,0.00,weatherlink.com 1.10,2013-08-23 08:01:00,
2013-08-23 04:16:00,75.9,75.0,29.97,ESE,108,0.0,0.0,96,0.00,,,0.00,weatherlink.com 1.10,2013-08-23 08:16:00,
2013-08-23 04:31:00,75.8,75.0,29.97,ESE,108,0.0,0.0,97,0.00,,,0.00,weatherlink.com 1.10,2013-08-23 08:31:00,
2013-08-23 04:46:00,75.7,75.0,29.96,ESE,108,0.0,0.0,97,0.00,,,0.00,weatherlink.com 1.10,2013-08-23 08:46:00,
2013-08-23 05:01:00,75.4,74.0,29.96,ESE,108,0.0,0.0,96,0.00,,,0.00,weatherlink.com 1.10,2013-08-23 09:01:00,
2013-08-23 05:16:00,75.1,74.0,29.96,ESE,108,0.0,0.0,97,0.01,,,0.01,weatherlink.com 1.10,2013-08-23 09:16:00,
2013-08-23 05:31:00,74.9,74.0,29.96,ESE,108,0.0,0.0,97,0.01,,,0.01,weatherlink.com 1.10,2013-08-23 09:31:00,
2013-08-23 05:46:00,75.0,74.0,29.97,ESE,108,0.0,0.0,97,0.01,,,0.01,weatherlink.com 1.10,2013-08-23 09:46:00,
2013-08-23 06:01:00,74.9,74.0,29.97,ESE,108,0.0,0.0,97,0.01,,,0.01,weatherlink.com 1.10,2013-08-23 10:01:00,
2013-08-23 06:16:00,75.0,74.0,29.97,ESE,108,0.0,0.0,97,0.00,,,0.01,weatherlink.com 1.10,2013-08-23 10:16:00,
2013-08-23 06:31:00,75.0,74.0,29.97,ESE,108,0.0,0.0,97,0.00,,,0.01,weatherlink.com 1.10,2013-08-23 10:31:00,
2013-08-23 06:46:00,75.1,74.0,29.97,ESE,108,0.0,0.0,97,0.00,,,0.01,weatherlink.com 1.10,2013-08-23 10:46:00,
2013-08-23 07:01:00,75.1,74.0,29.97,ESE,108,0.0,0.0,97,0.00,,,0.01,weatherlink.com 1.10,2013-08-23 11:01:00,
2013-08-23 07:16:00,75.1,74.0,29.97,ESE,108,0.0,0.0,97,0.00,,,0.01,weatherlink.com 1.10,2013-08-23 11:16:00,
2013-08-23 07:31:00,75.8,75.0,29.97,ESE,109,0.0,0.0,97,0.00,,,0.01,weatherlink.com 1.10,2013-08-23 11:31:00,
2013-08-23 07:46:00,76.2,75.0,29.98,ESE,108,0.0,0.0,97,0.00,,,0.01,weatherlink.com 1.10,2013-08-23 11:46:00,
2013-08-23 08:01:00,77.3,76.0,29.98,East,98,0.0,1.0,97,0.00,,,0.01,weatherlink.com 1.10,2013-08-23 12:01:00,
2013-08-23 08:16:00,77.7,77.0,29.99,ESE,107,4.0,4.0,97,0.00,,,0.01,weatherlink.com 1.10,2013-08-23 12:16:00,
2013-08-23 08:31:00,78.0,77.0,29.99,SE,127,2.0,3.0,97,0.00,,,0.01,weatherlink.com 1.10,2013-08-23 12:31:00,
2013-08-23 08:46:00,78.7,78.0,30.00,SE,127,1.0,2.0,97,0.00,,,0.01,weatherlink.com 1.10,2013-08-23 12:46:00,
2013-08-23 09:01:00,80.5,79.0,30.00,SSE,148,0.0,2.0,95,0.00,,,0.01,weatherlink.com 1.10,2013-08-23 13:01:00,
2013-08-23 09:16:00,82.5,80.0,30.00,SSE,158,0.0,4.0,91,0.00,,,0.01,weatherlink.com 1.10,2013-08-23 13:16:00,
2013-08-23 09:31:00,84.6,80.0,30.00,SE,136,5.0,5.0,86,0.00,,,0.01,weatherlink.com 1.10,2013-08-23 13:31:00,
2013-08-23 09:46:00,84.9,79.0,30.00,East,98,3.0,4.0,82,0.00,,,0.01,weatherlink.com 1.10,2013-08-23 13:46:00,
2013-08-23 10:01:00,85.3,79.0,30.00,SSW,195,0.0,4.0,82,0.00,,,0.01,weatherlink.com 1.10,2013-08-23 14:01:00,
2013-08-23 10:16:00,84.7,78.0,30.01,NNE,20,1.0,4.0,80,0.00,,,0.01,weatherlink.com 1.10,2013-08-23 14:16:00,
2013-08-23 10:32:00,84.8,78.0,30.01,SE,136,2.0,5.0,80,0.00,,,0.01,weatherlink.com 1.10,2013-08-23 14:32:00,
2013-08-23 10:46:00,85.4,78.0,30.01,NNE,19,0.0,5.0,79,0.00,,,0.01,weatherlink.com 1.10,2013-08-23 14:46:00,
2013-08-23 11:01:00,86.8,78.0,30.01,ESE,108,1.0,6.0,76,0.00,,,0.01,weatherlink.com 1.10,2013-08-23 15:01:00,
2013-08-23 11:16:00,87.0,79.0,30.01,SSW,194,2.0,3.0,76,0.00,,,0.01,weatherlink.com 1.10,2013-08-23 15:16:00,
2013-08-23 11:31:00,86.3,78.0,30.01,ENE,74,1.0,6.0,75,0.00,,,0.01,weatherlink.com 1.10,2013-08-23 15:31:00,
2013-08-23 11:46:00,88.2,79.0,30.01,SSE,149,4.0,7.0,73,0.00,,,0.01,weatherlink.com 1.10,2013-08-23 15:46:00,
2013-08-23 12:02:00,88.7,78.0,30.00,ESE,107,1.0,5.0,70,0.00,,,0.01,weatherlink.com 1.10,2013-08-23 16:02:00,
2013-08-23 12:17:00,88.6,79.0,30.00,NE,37,2.0,6.0,72,0.00,,,0.01,weatherlink.com 1.10,2013-08-23 16:17:00,
2013-08-23 12:32:00,89.1,78.0,30.00,ESE,105,1.0,6.0,70,0.00,,,0.01,weatherlink.com 1.10,2013-08-23 16:32:00,
2013-08-23 12:47:00,89.0,78.0,29.99,NNE,12,2.0,7.0,70,0.00,,,0.01,weatherlink.com 1.10,2013-08-23 16:47:00,
2013-08-23 13:02:00,89.7,79.0,29.99,NE,36,5.0,6.0,70,0.00,,,0.01,weatherlink.com 1.10,2013-08-23 17:02:00,
2013-08-23 13:17:00,89.6,77.0,29.99,NNW,335,1.0,4.0,67,0.00,,,0.01,weatherlink.com 1.10,2013-08-23 17:17:00,
2013-08-23 13:32:00,91.3,78.0,29.99,North,359,2.0,4.0,65,0.00,,,0.01,weatherlink.com 1.10,2013-08-23 17:32:00,
2013-08-23 13:47:00,91.2,77.0,29.98,SSE,148,2.0,6.0,64,0.00,,,0.01,weatherlink.com 1.10,2013-08-23 17:47:00,
2013-08-23 14:02:00,91.1,77.0,29.97,ENE,60,2.0,5.0,64,0.00,,,0.01,weatherlink.com 1.10,2013-08-23 18:02:00,
2013-08-23 14:17:00,91.1,77.0,29.96,WSW,249,1.0,5.0,64,0.00,,,0.01,weatherlink.com 1.10,2013-08-23 18:17:00,
2013-08-23 14:32:00,91.2,76.0,29.95,ESE,107,3.0,5.0,62,0.00,,,0.01,weatherlink.com 1.10,2013-08-23 18:32:00,
2013-08-23 14:47:00,91.7,76.0,29.95,WSW,240,2.0,6.0,61,0.00,,,0.01,weatherlink.com 1.10,2013-08-23 18:47:00,
2013-08-23 15:02:00,92.9,76.0,29.94,SSE,155,0.0,4.0,58,0.00,,,0.01,weatherlink.com 1.10,2013-08-23 19:02:00,
2013-08-23 15:17:00,92.9,77.0,29.94,SSW,200,1.0,5.0,61,0.00,,,0.01,weatherlink.com 1.10,2013-08-23 19:17:00,
2013-08-23 15:32:00,93.4,75.0,29.95,SE,135,2.0,5.0,56,0.00,,,0.01,weatherlink.com 1.10,2013-08-23 19:32:00,
2013-08-23 15:47:00,92.5,75.0,29.95,ESE,113,1.0,4.0,56,0.00,,,0.01,weatherlink.com 1.10,2013-08-23 19:47:00,
2013-08-23 16:02:00,92.9,76.0,29.94,WSW,238,1.0,3.0,59,0.00,,,0.01,weatherlink.com 1.10,2013-08-23 20:02:00,
2013-08-23 16:17:00,94.2,78.0,29.93,SE,128,1.0,6.0,59,0.00,,,0.01,weatherlink.com 1.10,2013-08-23 20:17:00,
2013-08-23 16:32:00,94.7,76.0,29.93,SSE,162,1.0,5.0,55,0.00,,,0.01,weatherlink.com 1.10,2013-08-23 20:32:00,
2013-08-23 16:47:00,94.3,77.0,29.94,ESE,120,1.0,9.0,58,0.00,,,0.01,weatherlink.com 1.10,2013-08-23 20:47:00,
2013-08-23 17:02:00,89.4,78.0,29.95,NNE,26,5.0,8.0,69,0.00,,,0.01,weatherlink.com 1.10,2013-08-23 21:02:00,
2013-08-23 17:17:00,86.6,75.0,29.95,East,82,3.0,9.0,69,0.00,,,0.01,weatherlink.com 1.10,2013-08-23 21:17:00,
2013-08-23 17:32:00,85.5,75.0,29.95,ESE,123,4.0,12.0,71,0.00,,,0.01,weatherlink.com 1.10,2013-08-23 21:32:00,
2013-08-23 17:47:00,84.0,77.0,29.95,SE,136,4.0,15.0,78,0.00,,,0.01,weatherlink.com 1.10,2013-08-23 21:47:00,
2013-08-23 18:02:00,83.5,77.0,29.96,East,93,8.0,11.0,80,0.00,,,0.01,weatherlink.com 1.10,2013-08-23 22:02:00,
2013-08-23 18:17:00,83.4,77.0,29.98,NNE,32,2.0,4.0,81,0.00,,,0.01,weatherlink.com 1.10,2013-08-23 22:17:00,
2013-08-23 18:32:00,82.5,76.0,29.99,NNW,335,5.0,7.0,80,0.00,,,0.01,weatherlink.com 1.10,2013-08-23 22:32:00,
2013-08-23 18:47:00,78.1,73.0,30.00,NW,322,6.0,13.0,84,0.00,,,0.01,weatherlink.com 1.10,2013-08-23 22:47:00,
2013-08-23 19:02:00,77.4,73.0,29.99,NNW,337,5.0,10.0,86,0.00,,,0.01,weatherlink.com 1.10,2013-08-23 23:02:00,
2013-08-23 19:17:00,77.2,73.0,29.99,NNE,15,3.0,8.0,87,0.00,,,0.01,weatherlink.com 1.10,2013-08-23 23:17:00,
2013-08-23 19:32:00,77.1,73.0,30.01,NW,319,2.0,6.0,87,0.00,,,0.01,weatherlink.com 1.10,2013-08-23 23:32:00,
2013-08-23 19:47:00,77.1,73.0,30.02,NNE,16,0.0,5.0,87,0.00,,,0.01,weatherlink.com 1.10,2013-08-23 23:47:00,
2013-08-23 20:02:00,76.8,73.0,30.00,NNE,28,6.0,9.0,87,0.00,,,0.01,weatherlink.com 1.10,2013-08-24 00:02:00,
2013-08-23 20:17:00,76.5,73.0,30.01,NNW,329,5.0,7.0,88,0.00,,,0.01,weatherlink.com 1.10,2013-08-24 00:17:00,
2013-08-23 20:32:00,76.4,73.0,30.01,NE,34,3.0,5.0,88,0.00,,,0.01,weatherlink.com 1.10,2013-08-24 00:32:00,
2013-08-23 20:47:00,76.1,72.0,30.01,North,351,0.0,5.0,88,0.00,,,0.01,weatherlink.com 1.10,2013-08-24 00:47:00,
2013-08-23 21:02:00,75.8,73.0,30.01,North,5,1.0,4.0,90,0.02,,,0.03,weatherlink.com 1.10,2013-08-24 01:02:00,
2013-08-23 21:17:00,75.3,73.0,30.02,NE,49,0.0,2.0,91,0.03,,,0.04,weatherlink.com 1.10,2013-08-24 01:17:00,
2013-08-23 21:32:00,75.0,73.0,30.02,East,94,0.0,2.0,92,0.04,,,0.05,weatherlink.com 1.10,2013-08-24 01:32:00,
2013-08-23 21:47:00,75.1,73.0,30.02,East,96,4.0,4.0,92,0.04,,,0.05,weatherlink.com 1.10,2013-08-24 01:47:00,
2013-08-23 22:02:00,75.3,73.0,30.02,South,176,0.0,2.0,93,0.02,,,0.05,weatherlink.com 1.10,2013-08-24 02:02:00,
2013-08-23 22:17:00,75.3,73.0,30.02,SW,228,0.0,0.0,93,0.01,,,0.05,weatherlink.com 1.10,2013-08-24 02:17:00,
2013-08-23 22:32:00,75.1,73.0,30.02,South,183,0.0,0.0,93,0.00,,,0.05,weatherlink.com 1.10,2013-08-24 02:32:00,
2013-08-23 22:47:00,75.2,73.0,30.01,ESE,111,0.0,0.0,93,0.00,,,0.05,weatherlink.com 1.10,2013-08-24 02:47:00,
2013-08-23 23:02:00,75.2,73.0,30.01,ESE,120,0.0,0.0,93,0.00,,,0.05,weatherlink.com 1.10,2013-08-24 03:02:00,
2013-08-23 23:17:00,75.0,73.0,30.02,SE,129,0.0,0.0,93,0.00,,,0.05,weatherlink.com 1.10,2013-08-24 03:17:00,
2013-08-23 23:32:00,74.9,73.0,30.02,SE,129,0.0,0.0,93,0.00,,,0.05,weatherlink.com 1.10,2013-08-24 03:32:00,
2013-08-23 23:47:00,74.7,73.0,30.02,SE,129,0.0,0.0,93,0.00,,,0.05,weatherlink.com 1.10,2013-08-24 03:47:00,